Terminal Aerodrome Forecast
Issued by NWS

Home | Current Version | Previous Version | Text Only | Print | Product List | Glossary On
Versions: 1 2 3 4 5 6 7 8 9 10 11 12 13 14 15 16 17 18 19 20 21 22 23 24 25 26 27 28
000
FTUS41 KRNK 281138
TAFLWB
TAF
KLWB 281138Z 2812/2912 VRB03KT P6SM SCT040 BKN100
     FM282000 VRB04KT P6SM VCTS BKN045CB OVC100
     FM290200 00000KT P6SM OVC100
     FM290800 00000KT 2SM BR SCT003=

USA.gov is the U.S. government's official web portal to all federal, state and local government web resources and services.